Ana Sayfa
METAR-TAF:

METAR-TAF

Havaalanları :

Waco, Teksas, Amerika Birleşik Devletleri

Enlem: 31-38-16N, Boylam: 097-04-27W, yükseklik: 143 m

Güncel hava durumu gözlemi

Rapor saat 19:55 UTC de 23 dakika önce yapıldı.
Rüzgar doğudan 6 kt
Sıcaklık 29°C
Nem 45%
Basınç 1020 hPa
Görüş mesafesi: 16.1 km
5000 ft yükseklikte parçalı bulutlu

METAR: KCNW 311955Z 10006KT 10SM SCT050 29/16 A3012

Saat: 14:18 (20:18 UTC)


TAF: eksik

4.000'den fazla havaalanı için hava durumu gözlemleri ve tahminleri (METAR ve TAF raporları).

Kullanılabilir istasyonlar harita üzerinde sarı ve kırmızı noktalarla gösterilir.

İstasyonun adını görmek için fareyi noktanın üzerinde gezdirin.

Sonrasında hava gözlem ve tahminlerini görmek için tıklayın.

Haritayı değiştirmek için: yaklaştırmak için siyah artı işaretli yeşil düğmeye ve uzaklaştırmak için de eksi işaretli düğmeye hızla tıklayın; bitişik haritalar için yeşil okları kullanın.


METAR-TAF: